sensor_id;sensor_type;location;lat;lon;timestamp;P1;durP1;ratioP1;P2;durP2;ratioP2
37931;SDS011;23758;42.640;23.302;2023-08-06T00:01:12;3.08;;;2.88;;
37931;SDS011;23758;42.640;23.302;2023-08-06T00:03:37;2.60;;;2.40;;
37931;SDS011;23758;42.640;23.302;2023-08-06T00:06:04;2.50;;;2.35;;
37931;SDS011;23758;42.640;23.302;2023-08-06T00:08:31;2.17;;;2.08;;
37931;SDS011;23758;42.640;23.302;2023-08-06T00:10:56;2.40;;;2.30;;
37931;SDS011;23758;42.640;23.302;2023-08-06T00:13:21;2.30;;;2.20;;
37931;SDS011;23758;42.640;23.302;2023-08-06T00:15:47;2.30;;;2.20;;
37931;SDS011;23758;42.640;23.302;2023-08-06T00:18:12;3.60;;;2.90;;
37931;SDS011;23758;42.640;23.302;2023-08-06T00:20:38;2.88;;;2.67;;
37931;SDS011;23758;42.640;23.302;2023-08-06T00:23:05;2.80;;;2.60;;
37931;SDS011;23758;42.640;23.302;2023-08-06T00:25:31;3.13;;;2.88;;
37931;SDS011;23758;42.640;23.302;2023-08-06T00:27:56;3.20;;;2.90;;
37931;SDS011;23758;42.640;23.302;2023-08-06T00:30:22;2.80;;;2.60;;
37931;SDS011;23758;42.640;23.302;2023-08-06T00:32:47;3.13;;;2.92;;
37931;SDS011;23758;42.640;23.302;2023-08-06T00:35:13;2.60;;;2.40;;
37931;SDS011;23758;42.640;23.302;2023-08-06T00:37:38;2.63;;;2.42;;
37931;SDS011;23758;42.640;23.302;2023-08-06T00:40:05;2.55;;;2.40;;
37931;SDS011;23758;42.640;23.302;2023-08-06T00:42:32;2.72;;;2.53;;
37931;SDS011;23758;42.640;23.302;2023-08-06T00:44:59;2.70;;;2.50;;
37931;SDS011;23758;42.640;23.302;2023-08-06T00:47:25;2.65;;;2.45;;
37931;SDS011;23758;42.640;23.302;2023-08-06T00:49:51;2.55;;;2.38;;
37931;SDS011;23758;42.640;23.302;2023-08-06T00:52:16;2.40;;;2.30;;
37931;SDS011;23758;42.640;23.302;2023-08-06T00:54:42;2.38;;;2.28;;
37931;SDS011;23758;42.640;23.302;2023-08-06T00:57:07;2.53;;;2.35;;
37931;SDS011;23758;42.640;23.302;2023-08-06T00:59:33;2.90;;;2.60;;
37931;SDS011;23758;42.640;23.302;2023-08-06T01:01:59;2.50;;;2.30;;
37931;SDS011;23758;42.640;23.302;2023-08-06T01:04:25;2.70;;;2.50;;
37931;SDS011;23758;42.640;23.302;2023-08-06T01:07:02;3.08;;;2.88;;
37931;SDS011;23758;42.640;23.302;2023-08-06T01:10:04;3.08;;;2.85;;
37931;SDS011;23758;42.640;23.302;2023-08-06T01:12:41;3.15;;;2.95;;
37931;SDS011;23758;42.640;23.302;2023-08-06T01:15:18;3.13;;;2.92;;
37931;SDS011;23758;42.640;23.302;2023-08-06T01:17:58;2.90;;;2.70;;
37931;SDS011;23758;42.640;23.302;2023-08-06T01:20:30;3.25;;;3.05;;
37931;SDS011;23758;42.640;23.302;2023-08-06T01:22:56;3.58;;;3.28;;
37931;SDS011;23758;42.640;23.302;2023-08-06T01:25:21;3.10;;;2.90;;
37931;SDS011;23758;42.640;23.302;2023-08-06T01:27:54;3.10;;;2.90;;
37931;SDS011;23758;42.640;23.302;2023-08-06T01:30:27;2.88;;;2.67;;
37931;SDS011;23758;42.640;23.302;2023-08-06T01:32:58;4.50;;;4.20;;
37931;SDS011;23758;42.640;23.302;2023-08-06T01:35:24;3.60;;;3.40;;
37931;SDS011;23758;42.640;23.302;2023-08-06T01:37:51;3.35;;;3.10;;
37931;SDS011;23758;42.640;23.302;2023-08-06T01:40:17;3.60;;;3.40;;
37931;SDS011;23758;42.640;23.302;2023-08-06T01:42:42;3.70;;;3.50;;
37931;SDS011;23758;42.640;23.302;2023-08-06T01:45:08;3.95;;;3.65;;
37931;SDS011;23758;42.640;23.302;2023-08-06T01:47:34;4.47;;;4.18;;
37931;SDS011;23758;42.640;23.302;2023-08-06T01:49:59;3.45;;;3.25;;
37931;SDS011;23758;42.640;23.302;2023-08-06T01:52:25;2.92;;;2.72;;
37931;SDS011;23758;42.640;23.302;2023-08-06T01:54:51;3.45;;;3.15;;
37931;SDS011;23758;42.640;23.302;2023-08-06T01:57:17;2.95;;;2.75;;
37931;SDS011;23758;42.640;23.302;2023-08-06T01:59:42;3.00;;;2.80;;
37931;SDS011;23758;42.640;23.302;2023-08-06T02:02:08;2.97;;;2.78;;
37931;SDS011;23758;42.640;23.302;2023-08-06T02:04:33;3.05;;;2.85;;
37931;SDS011;23758;42.640;23.302;2023-08-06T02:06:58;2.95;;;2.75;;
37931;SDS011;23758;42.640;23.302;2023-08-06T02:09:24;3.13;;;2.92;;
37931;SDS011;23758;42.640;23.302;2023-08-06T02:11:49;3.22;;;3.03;;
37931;SDS011;23758;42.640;23.302;2023-08-06T02:14:15;3.17;;;2.97;;
37931;SDS011;23758;42.640;23.302;2023-08-06T02:16:40;2.90;;;2.70;;
37931;SDS011;23758;42.640;23.302;2023-08-06T02:19:06;3.10;;;2.90;;
37931;SDS011;23758;42.640;23.302;2023-08-06T02:21:31;3.05;;;2.85;;
37931;SDS011;23758;42.640;23.302;2023-08-06T02:23:57;4.78;;;4.47;;
37931;SDS011;23758;42.640;23.302;2023-08-06T02:26:22;2.92;;;2.72;;
37931;SDS011;23758;42.640;23.302;2023-08-06T02:28:48;3.58;;;3.28;;
37931;SDS011;23758;42.640;23.302;2023-08-06T02:31:13;3.17;;;2.97;;
37931;SDS011;23758;42.640;23.302;2023-08-06T02:33:39;3.17;;;2.97;;
37931;SDS011;23758;42.640;23.302;2023-08-06T02:36:04;3.13;;;2.92;;
37931;SDS011;23758;42.640;23.302;2023-08-06T02:38:33;3.10;;;2.90;;
37931;SDS011;23758;42.640;23.302;2023-08-06T02:40:58;2.95;;;2.75;;
37931;SDS011;23758;42.640;23.302;2023-08-06T02:43:24;2.83;;;2.63;;
37931;SDS011;23758;42.640;23.302;2023-08-06T02:45:49;2.80;;;2.60;;
37931;SDS011;23758;42.640;23.302;2023-08-06T02:48:15;2.90;;;2.70;;
37931;SDS011;23758;42.640;23.302;2023-08-06T02:50:41;3.17;;;2.97;;
37931;SDS011;23758;42.640;23.302;2023-08-06T02:53:07;3.03;;;2.83;;
37931;SDS011;23758;42.640;23.302;2023-08-06T02:55:33;2.80;;;2.60;;
37931;SDS011;23758;42.640;23.302;2023-08-06T02:57:59;2.80;;;2.60;;
37931;SDS011;23758;42.640;23.302;2023-08-06T03:00:25;2.72;;;2.53;;
37931;SDS011;23758;42.640;23.302;2023-08-06T03:02:51;2.47;;;2.38;;
37931;SDS011;23758;42.640;23.302;2023-08-06T03:05:17;2.85;;;2.65;;
37931;SDS011;23758;42.640;23.302;2023-08-06T03:07:42;2.42;;;2.33;;
37931;SDS011;23758;42.640;23.302;2023-08-06T03:10:08;2.50;;;2.38;;
37931;SDS011;23758;42.640;23.302;2023-08-06T03:12:34;2.40;;;2.30;;
37931;SDS011;23758;42.640;23.302;2023-08-06T03:14:59;2.67;;;2.47;;
37931;SDS011;23758;42.640;23.302;2023-08-06T03:17:24;2.85;;;2.65;;
37931;SDS011;23758;42.640;23.302;2023-08-06T03:19:50;2.60;;;2.45;;
37931;SDS011;23758;42.640;23.302;2023-08-06T03:22:15;2.58;;;2.42;;
37931;SDS011;23758;42.640;23.302;2023-08-06T03:24:41;2.70;;;2.50;;
37931;SDS011;23758;42.640;23.302;2023-08-06T03:27:06;2.67;;;2.47;;
37931;SDS011;23758;42.640;23.302;2023-08-06T03:29:32;2.80;;;2.60;;
37931;SDS011;23758;42.640;23.302;2023-08-06T03:31:57;2.72;;;2.53;;
37931;SDS011;23758;42.640;23.302;2023-08-06T03:34:23;2.75;;;2.55;;
37931;SDS011;23758;42.640;23.302;2023-08-06T03:36:48;2.67;;;2.47;;
37931;SDS011;23758;42.640;23.302;2023-08-06T03:39:13;2.72;;;2.53;;
37931;SDS011;23758;42.640;23.302;2023-08-06T03:41:39;2.85;;;2.65;;
37931;SDS011;23758;42.640;23.302;2023-08-06T03:44:05;2.80;;;2.60;;
37931;SDS011;23758;42.640;23.302;2023-08-06T03:46:30;2.45;;;2.35;;
37931;SDS011;23758;42.640;23.302;2023-08-06T03:48:59;2.65;;;2.45;;
37931;SDS011;23758;42.640;23.302;2023-08-06T03:51:25;2.80;;;2.60;;
37931;SDS011;23758;42.640;23.302;2023-08-06T03:53:51;2.90;;;2.70;;
37931;SDS011;23758;42.640;23.302;2023-08-06T03:56:16;2.80;;;2.60;;
37931;SDS011;23758;42.640;23.302;2023-08-06T03:58:42;2.80;;;2.60;;
37931;SDS011;23758;42.640;23.302;2023-08-06T04:01:07;2.80;;;2.60;;
37931;SDS011;23758;42.640;23.302;2023-08-06T04:03:33;2.40;;;2.30;;
37931;SDS011;23758;42.640;23.302;2023-08-06T04:05:59;2.42;;;2.33;;
37931;SDS011;23758;42.640;23.302;2023-08-06T04:08:26;2.40;;;2.30;;
37931;SDS011;23758;42.640;23.302;2023-08-06T04:10:52;2.40;;;2.30;;
37931;SDS011;23758;42.640;23.302;2023-08-06T04:13:17;2.30;;;2.20;;
37931;SDS011;23758;42.640;23.302;2023-08-06T04:15:43;2.40;;;2.30;;
37931;SDS011;23758;42.640;23.302;2023-08-06T04:18:08;3.20;;;3.00;;
37931;SDS011;23758;42.640;23.302;2023-08-06T04:20:33;2.40;;;2.30;;
37931;SDS011;23758;42.640;23.302;2023-08-06T04:22:59;2.30;;;2.20;;
37931;SDS011;23758;42.640;23.302;2023-08-06T04:25:31;2.45;;;2.35;;
37931;SDS011;23758;42.640;23.302;2023-08-06T04:27:57;2.40;;;2.30;;
37931;SDS011;23758;42.640;23.302;2023-08-06T04:30:22;2.30;;;2.20;;
37931;SDS011;23758;42.640;23.302;2023-08-06T04:32:49;2.30;;;2.20;;
37931;SDS011;23758;42.640;23.302;2023-08-06T04:35:15;2.30;;;2.20;;
37931;SDS011;23758;42.640;23.302;2023-08-06T04:37:40;2.20;;;2.10;;
37931;SDS011;23758;42.640;23.302;2023-08-06T04:40:06;2.22;;;2.13;;
37931;SDS011;23758;42.640;23.302;2023-08-06T04:42:32;2.30;;;2.20;;
37931;SDS011;23758;42.640;23.302;2023-08-06T04:44:57;2.30;;;2.20;;
37931;SDS011;23758;42.640;23.302;2023-08-06T04:47:22;2.30;;;2.20;;
37931;SDS011;23758;42.640;23.302;2023-08-06T04:49:48;2.17;;;2.08;;
37931;SDS011;23758;42.640;23.302;2023-08-06T04:52:13;2.30;;;2.20;;
37931;SDS011;23758;42.640;23.302;2023-08-06T04:54:39;2.30;;;2.20;;
37931;SDS011;23758;42.640;23.302;2023-08-06T04:57:04;2.20;;;2.10;;
37931;SDS011;23758;42.640;23.302;2023-08-06T04:59:30;2.20;;;2.10;;
37931;SDS011;23758;42.640;23.302;2023-08-06T05:01:55;2.33;;;2.22;;
37931;SDS011;23758;42.640;23.302;2023-08-06T05:04:21;2.30;;;2.20;;
37931;SDS011;23758;42.640;23.302;2023-08-06T05:06:47;2.42;;;2.33;;
37931;SDS011;23758;42.640;23.302;2023-08-06T05:09:13;2.10;;;2.00;;
37931;SDS011;23758;42.640;23.302;2023-08-06T05:11:38;2.60;;;2.40;;
37931;SDS011;23758;42.640;23.302;2023-08-06T05:14:04;2.28;;;2.17;;
37931;SDS011;23758;42.640;23.302;2023-08-06T05:16:29;2.90;;;2.70;;
37931;SDS011;23758;42.640;23.302;2023-08-06T05:18:55;2.20;;;2.10;;
37931;SDS011;23758;42.640;23.302;2023-08-06T05:21:20;2.00;;;1.90;;
37931;SDS011;23758;42.640;23.302;2023-08-06T05:23:46;1.80;;;1.70;;
37931;SDS011;23758;42.640;23.302;2023-08-06T05:26:11;1.70;;;1.60;;
37931;SDS011;23758;42.640;23.302;2023-08-06T05:28:36;1.95;;;1.85;;
37931;SDS011;23758;42.640;23.302;2023-08-06T05:31:02;1.70;;;1.60;;
37931;SDS011;23758;42.640;23.302;2023-08-06T05:33:31;3.08;;;2.78;;
37931;SDS011;23758;42.640;23.302;2023-08-06T05:35:56;2.90;;;2.70;;
37931;SDS011;23758;42.640;23.302;2023-08-06T05:38:22;2.30;;;2.20;;
37931;SDS011;23758;42.640;23.302;2023-08-06T05:40:48;1.80;;;1.70;;
37931;SDS011;23758;42.640;23.302;2023-08-06T05:43:14;1.80;;;1.70;;
37931;SDS011;23758;42.640;23.302;2023-08-06T05:45:39;1.80;;;1.70;;
37931;SDS011;23758;42.640;23.302;2023-08-06T05:48:09;1.80;;;1.70;;
37931;SDS011;23758;42.640;23.302;2023-08-06T05:50:34;1.92;;;1.83;;
37931;SDS011;23758;42.640;23.302;2023-08-06T05:53:00;1.90;;;1.80;;
37931;SDS011;23758;42.640;23.302;2023-08-06T05:55:25;1.90;;;1.80;;
37931;SDS011;23758;42.640;23.302;2023-08-06T05:57:51;1.70;;;1.60;;
37931;SDS011;23758;42.640;23.302;2023-08-06T06:00:17;1.80;;;1.70;;
37931;SDS011;23758;42.640;23.302;2023-08-06T06:02:43;1.90;;;1.80;;
37931;SDS011;23758;42.640;23.302;2023-08-06T06:05:09;1.65;;;1.55;;
37931;SDS011;23758;42.640;23.302;2023-08-06T06:07:34;1.73;;;1.60;;
37931;SDS011;23758;42.640;23.302;2023-08-06T06:10:00;2.47;;;1.92;;
37931;SDS011;23758;42.640;23.302;2023-08-06T06:12:26;1.70;;;1.60;;
37931;SDS011;23758;42.640;23.302;2023-08-06T06:14:51;1.70;;;1.60;;
37931;SDS011;23758;42.640;23.302;2023-08-06T06:17:17;1.70;;;1.60;;
37931;SDS011;23758;42.640;23.302;2023-08-06T06:19:42;1.80;;;1.70;;
37931;SDS011;23758;42.640;23.302;2023-08-06T06:22:07;1.90;;;1.80;;
37931;SDS011;23758;42.640;23.302;2023-08-06T06:24:34;2.03;;;1.92;;
37931;SDS011;23758;42.640;23.302;2023-08-06T06:26:59;2.85;;;2.65;;
37931;SDS011;23758;42.640;23.302;2023-08-06T06:29:25;1.98;;;1.88;;
37931;SDS011;23758;42.640;23.302;2023-08-06T06:31:50;1.90;;;1.80;;
37931;SDS011;23758;42.640;23.302;2023-08-06T06:34:16;1.83;;;1.73;;
37931;SDS011;23758;42.640;23.302;2023-08-06T06:36:41;2.22;;;2.03;;
37931;SDS011;23758;42.640;23.302;2023-08-06T06:39:07;2.30;;;2.20;;
37931;SDS011;23758;42.640;23.302;2023-08-06T06:41:33;2.00;;;1.90;;
37931;SDS011;23758;42.640;23.302;2023-08-06T06:43:58;2.30;;;1.80;;
37931;SDS011;23758;42.640;23.302;2023-08-06T06:46:24;1.70;;;1.60;;
37931;SDS011;23758;42.640;23.302;2023-08-06T06:48:49;1.70;;;1.60;;
37931;SDS011;23758;42.640;23.302;2023-08-06T06:51:15;1.73;;;1.63;;
37931;SDS011;23758;42.640;23.302;2023-08-06T06:53:40;1.77;;;1.67;;
37931;SDS011;23758;42.640;23.302;2023-08-06T06:56:06;1.70;;;1.60;;
37931;SDS011;23758;42.640;23.302;2023-08-06T06:58:31;1.90;;;1.80;;
37931;SDS011;23758;42.640;23.302;2023-08-06T07:00:57;2.05;;;1.95;;
37931;SDS011;23758;42.640;23.302;2023-08-06T07:03:23;1.80;;;1.70;;
37931;SDS011;23758;42.640;23.302;2023-08-06T07:05:48;1.70;;;1.60;;
37931;SDS011;23758;42.640;23.302;2023-08-06T07:08:14;1.67;;;1.58;;
37931;SDS011;23758;42.640;23.302;2023-08-06T07:10:40;1.70;;;1.60;;
37931;SDS011;23758;42.640;23.302;2023-08-06T07:13:06;1.60;;;1.50;;
37931;SDS011;23758;42.640;23.302;2023-08-06T07:15:32;1.70;;;1.60;;
37931;SDS011;23758;42.640;23.302;2023-08-06T07:17:57;1.92;;;1.83;;
37931;SDS011;23758;42.640;23.302;2023-08-06T07:20:23;1.67;;;1.58;;
37931;SDS011;23758;42.640;23.302;2023-08-06T07:22:48;2.15;;;2.05;;
37931;SDS011;23758;42.640;23.302;2023-08-06T07:25:15;1.70;;;1.60;;
37931;SDS011;23758;42.640;23.302;2023-08-06T07:27:41;1.77;;;1.67;;
37931;SDS011;23758;42.640;23.302;2023-08-06T07:30:06;1.70;;;1.60;;
37931;SDS011;23758;42.640;23.302;2023-08-06T07:32:32;2.13;;;2.03;;
37931;SDS011;23758;42.640;23.302;2023-08-06T07:34:58;2.22;;;2.13;;
37931;SDS011;23758;42.640;23.302;2023-08-06T07:37:25;2.60;;;2.40;;
37931;SDS011;23758;42.640;23.302;2023-08-06T07:39:53;2.67;;;2.47;;
37931;SDS011;23758;42.640;23.302;2023-08-06T07:42:19;2.10;;;2.00;;
37931;SDS011;23758;42.640;23.302;2023-08-06T07:44:53;2.33;;;2.22;;
37931;SDS011;23758;42.640;23.302;2023-08-06T07:47:20;1.88;;;1.77;;
37931;SDS011;23758;42.640;23.302;2023-08-06T07:49:45;1.90;;;1.80;;
37931;SDS011;23758;42.640;23.302;2023-08-06T07:52:11;2.10;;;2.00;;
37931;SDS011;23758;42.640;23.302;2023-08-06T07:54:36;1.90;;;1.80;;
37931;SDS011;23758;42.640;23.302;2023-08-06T07:57:02;2.10;;;2.00;;
37931;SDS011;23758;42.640;23.302;2023-08-06T07:59:27;2.20;;;2.10;;
37931;SDS011;23758;42.640;23.302;2023-08-06T08:01:53;2.10;;;2.00;;
37931;SDS011;23758;42.640;23.302;2023-08-06T08:04:18;2.10;;;2.00;;
37931;SDS011;23758;42.640;23.302;2023-08-06T08:06:44;1.90;;;1.80;;
37931;SDS011;23758;42.640;23.302;2023-08-06T08:09:09;1.90;;;1.80;;
37931;SDS011;23758;42.640;23.302;2023-08-06T08:11:35;1.90;;;1.80;;
37931;SDS011;23758;42.640;23.302;2023-08-06T08:14:00;1.85;;;1.75;;
37931;SDS011;23758;42.640;23.302;2023-08-06T08:16:26;2.55;;;2.35;;
37931;SDS011;23758;42.640;23.302;2023-08-06T08:18:51;2.08;;;1.95;;
37931;SDS011;23758;42.640;23.302;2023-08-06T08:21:17;1.70;;;1.60;;
37931;SDS011;23758;42.640;23.302;2023-08-06T08:23:42;1.80;;;1.70;;
37931;SDS011;23758;42.640;23.302;2023-08-06T08:26:09;1.60;;;1.50;;
37931;SDS011;23758;42.640;23.302;2023-08-06T08:28:34;1.70;;;1.60;;
37931;SDS011;23758;42.640;23.302;2023-08-06T08:31:00;1.70;;;1.60;;
37931;SDS011;23758;42.640;23.302;2023-08-06T08:33:25;1.58;;;1.48;;
37931;SDS011;23758;42.640;23.302;2023-08-06T08:35:50;1.40;;;1.30;;
37931;SDS011;23758;42.640;23.302;2023-08-06T08:38:16;1.30;;;1.25;;
37931;SDS011;23758;42.640;23.302;2023-08-06T08:40:45;1.20;;;1.20;;
37931;SDS011;23758;42.640;23.302;2023-08-06T08:43:15;1.33;;;1.23;;
37931;SDS011;23758;42.640;23.302;2023-08-06T08:45:40;1.33;;;1.23;;
37931;SDS011;23758;42.640;23.302;2023-08-06T08:48:07;1.38;;;1.27;;
37931;SDS011;23758;42.640;23.302;2023-08-06T08:50:34;1.50;;;1.40;;
37931;SDS011;23758;42.640;23.302;2023-08-06T08:53:00;1.20;;;1.20;;
37931;SDS011;23758;42.640;23.302;2023-08-06T08:55:25;1.20;;;1.20;;
37931;SDS011;23758;42.640;23.302;2023-08-06T08:57:51;1.42;;;1.33;;
37931;SDS011;23758;42.640;23.302;2023-08-06T09:00:17;1.40;;;1.30;;
37931;SDS011;23758;42.640;23.302;2023-08-06T09:02:42;1.85;;;1.50;;
37931;SDS011;23758;42.640;23.302;2023-08-06T09:05:09;1.40;;;1.30;;
37931;SDS011;23758;42.640;23.302;2023-08-06T09:07:38;1.50;;;1.40;;
37931;SDS011;23758;42.640;23.302;2023-08-06T09:10:10;1.45;;;1.35;;
37931;SDS011;23758;42.640;23.302;2023-08-06T09:12:38;1.20;;;1.20;;
37931;SDS011;23758;42.640;23.302;2023-08-06T09:15:04;1.40;;;1.30;;
37931;SDS011;23758;42.640;23.302;2023-08-06T09:17:30;1.20;;;1.20;;
37931;SDS011;23758;42.640;23.302;2023-08-06T09:19:56;1.30;;;1.20;;
37931;SDS011;23758;42.640;23.302;2023-08-06T09:22:21;1.60;;;1.50;;
37931;SDS011;23758;42.640;23.302;2023-08-06T09:24:48;1.13;;;1.13;;
37931;SDS011;23758;42.640;23.302;2023-08-06T09:27:13;1.50;;;1.27;;
37931;SDS011;23758;42.640;23.302;2023-08-06T09:29:42;1.08;;;1.08;;
37931;SDS011;23758;42.640;23.302;2023-08-06T09:32:08;1.00;;;1.00;;
37931;SDS011;23758;42.640;23.302;2023-08-06T09:34:34;1.05;;;1.02;;
37931;SDS011;23758;42.640;23.302;2023-08-06T09:36:59;1.10;;;1.00;;
37931;SDS011;23758;42.640;23.302;2023-08-06T09:39:29;1.20;;;1.17;;
37931;SDS011;23758;42.640;23.302;2023-08-06T09:41:56;1.02;;;1.02;;
37931;SDS011;23758;42.640;23.302;2023-08-06T09:44:23;1.10;;;1.10;;
37931;SDS011;23758;42.640;23.302;2023-08-06T09:47:00;1.40;;;1.30;;
37931;SDS011;23758;42.640;23.302;2023-08-06T09:49:48;1.42;;;1.33;;
37931;SDS011;23758;42.640;23.302;2023-08-06T09:52:13;1.40;;;1.30;;
37931;SDS011;23758;42.640;23.302;2023-08-06T09:54:38;1.55;;;1.45;;
37931;SDS011;23758;42.640;23.302;2023-08-06T09:57:04;1.40;;;1.30;;
37931;SDS011;23758;42.640;23.302;2023-08-06T09:59:30;1.60;;;1.50;;
37931;SDS011;23758;42.640;23.302;2023-08-06T10:02:00;1.40;;;1.30;;
37931;SDS011;23758;42.640;23.302;2023-08-06T10:04:25;1.50;;;1.40;;
37931;SDS011;23758;42.640;23.302;2023-08-06T10:06:51;1.50;;;1.40;;
37931;SDS011;23758;42.640;23.302;2023-08-06T10:09:17;1.50;;;1.40;;
37931;SDS011;23758;42.640;23.302;2023-08-06T10:11:44;1.42;;;1.33;;
37931;SDS011;23758;42.640;23.302;2023-08-06T10:14:20;1.60;;;1.50;;
37931;SDS011;23758;42.640;23.302;2023-08-06T10:16:48;1.50;;;1.40;;
37931;SDS011;23758;42.640;23.302;2023-08-06T10:19:14;1.40;;;1.30;;
37931;SDS011;23758;42.640;23.302;2023-08-06T10:21:40;1.50;;;1.40;;
37931;SDS011;23758;42.640;23.302;2023-08-06T10:24:09;1.73;;;1.63;;
37931;SDS011;23758;42.640;23.302;2023-08-06T10:26:39;1.40;;;1.30;;
37931;SDS011;23758;42.640;23.302;2023-08-06T10:32:02;1.40;;;1.30;;
37931;SDS011;23758;42.640;23.302;2023-08-06T10:37:18;1.40;;;1.30;;
37931;SDS011;23758;42.640;23.302;2023-08-06T10:39:53;1.65;;;1.55;;
37931;SDS011;23758;42.640;23.302;2023-08-06T10:42:19;1.40;;;1.30;;
37931;SDS011;23758;42.640;23.302;2023-08-06T10:47:40;1.58;;;1.48;;
37931;SDS011;23758;42.640;23.302;2023-08-06T10:50:15;1.30;;;1.25;;
37931;SDS011;23758;42.640;23.302;2023-08-06T10:52:46;1.58;;;1.48;;
37931;SDS011;23758;42.640;23.302;2023-08-06T10:55:12;1.50;;;1.40;;
37931;SDS011;23758;42.640;23.302;2023-08-06T10:57:51;2.05;;;1.73;;
37931;SDS011;23758;42.640;23.302;2023-08-06T11:00:16;1.70;;;1.60;;
37931;SDS011;23758;42.640;23.302;2023-08-06T11:02:42;1.55;;;1.45;;
37931;SDS011;23758;42.640;23.302;2023-08-06T11:05:09;1.50;;;1.40;;
37931;SDS011;23758;42.640;23.302;2023-08-06T11:07:36;1.33;;;1.25;;
37931;SDS011;23758;42.640;23.302;2023-08-06T11:10:09;1.50;;;1.40;;
37931;SDS011;23758;42.640;23.302;2023-08-06T11:12:36;1.40;;;1.30;;
37931;SDS011;23758;42.640;23.302;2023-08-06T11:15:02;1.55;;;1.45;;
37931;SDS011;23758;42.640;23.302;2023-08-06T11:17:28;1.48;;;1.38;;
37931;SDS011;23758;42.640;23.302;2023-08-06T11:19:54;1.40;;;1.30;;
37931;SDS011;23758;42.640;23.302;2023-08-06T11:22:20;1.30;;;1.20;;
37931;SDS011;23758;42.640;23.302;2023-08-06T11:24:47;1.30;;;1.20;;
37931;SDS011;23758;42.640;23.302;2023-08-06T11:27:13;1.60;;;1.50;;
37931;SDS011;23758;42.640;23.302;2023-08-06T11:29:43;1.40;;;1.30;;
37931;SDS011;23758;42.640;23.302;2023-08-06T11:32:09;1.92;;;1.83;;
37931;SDS011;23758;42.640;23.302;2023-08-06T11:37:56;1.60;;;1.50;;
37931;SDS011;23758;42.640;23.302;2023-08-06T11:40:40;1.70;;;1.60;;
37931;SDS011;23758;42.640;23.302;2023-08-06T11:43:05;1.90;;;1.80;;
37931;SDS011;23758;42.640;23.302;2023-08-06T11:45:31;1.95;;;1.85;;
37931;SDS011;23758;42.640;23.302;2023-08-06T11:48:00;1.90;;;1.80;;
37931;SDS011;23758;42.640;23.302;2023-08-06T11:50:26;1.80;;;1.70;;
37931;SDS011;23758;42.640;23.302;2023-08-06T11:52:56;1.70;;;1.60;;
37931;SDS011;23758;42.640;23.302;2023-08-06T11:55:24;1.60;;;1.50;;
37931;SDS011;23758;42.640;23.302;2023-08-06T11:57:50;1.65;;;1.55;;
37931;SDS011;23758;42.640;23.302;2023-08-06T12:00:16;1.77;;;1.67;;
37931;SDS011;23758;42.640;23.302;2023-08-06T12:02:47;1.73;;;1.63;;
37931;SDS011;23758;42.640;23.302;2023-08-06T12:05:21;1.55;;;1.45;;
37931;SDS011;23758;42.640;23.302;2023-08-06T12:07:58;1.50;;;1.40;;
37931;SDS011;23758;42.640;23.302;2023-08-06T12:10:25;1.42;;;1.33;;
37931;SDS011;23758;42.640;23.302;2023-08-06T12:12:52;1.42;;;1.33;;
37931;SDS011;23758;42.640;23.302;2023-08-06T12:15:18;1.20;;;1.20;;
37931;SDS011;23758;42.640;23.302;2023-08-06T12:17:44;1.75;;;1.65;;
37931;SDS011;23758;42.640;23.302;2023-08-06T12:20:09;1.50;;;1.40;;
37931;SDS011;23758;42.640;23.302;2023-08-06T12:22:36;1.60;;;1.50;;
37931;SDS011;23758;42.640;23.302;2023-08-06T12:25:12;1.50;;;1.40;;
37931;SDS011;23758;42.640;23.302;2023-08-06T12:27:39;1.67;;;1.58;;
37931;SDS011;23758;42.640;23.302;2023-08-06T12:30:08;1.67;;;1.58;;
37931;SDS011;23758;42.640;23.302;2023-08-06T12:32:34;1.50;;;1.40;;
37931;SDS011;23758;42.640;23.302;2023-08-06T12:35:00;1.60;;;1.50;;
37931;SDS011;23758;42.640;23.302;2023-08-06T12:37:26;1.60;;;1.50;;
37931;SDS011;23758;42.640;23.302;2023-08-06T12:39:51;1.58;;;1.48;;
37931;SDS011;23758;42.640;23.302;2023-08-06T12:42:17;1.70;;;1.60;;
37931;SDS011;23758;42.640;23.302;2023-08-06T12:44:42;1.60;;;1.50;;
37931;SDS011;23758;42.640;23.302;2023-08-06T12:47:08;1.60;;;1.50;;
37931;SDS011;23758;42.640;23.302;2023-08-06T12:49:33;1.85;;;1.70;;
37931;SDS011;23758;42.640;23.302;2023-08-06T12:51:59;1.77;;;1.67;;
37931;SDS011;23758;42.640;23.302;2023-08-06T12:54:28;1.48;;;1.38;;
37931;SDS011;23758;42.640;23.302;2023-08-06T12:56:54;1.50;;;1.40;;
37931;SDS011;23758;42.640;23.302;2023-08-06T12:59:19;1.27;;;1.27;;
37931;SDS011;23758;42.640;23.302;2023-08-06T13:01:45;1.73;;;1.63;;
37931;SDS011;23758;42.640;23.302;2023-08-06T13:04:11;1.50;;;1.40;;
37931;SDS011;23758;42.640;23.302;2023-08-06T13:06:37;1.25;;;1.17;;
37931;SDS011;23758;42.640;23.302;2023-08-06T13:09:04;1.40;;;1.30;;
37931;SDS011;23758;42.640;23.302;2023-08-06T13:11:30;1.10;;;1.10;;
37931;SDS011;23758;42.640;23.302;2023-08-06T13:14:03;1.23;;;1.20;;
37931;SDS011;23758;42.640;23.302;2023-08-06T13:16:30;1.40;;;1.30;;
37931;SDS011;23758;42.640;23.302;2023-08-06T13:18:56;1.77;;;1.40;;
37931;SDS011;23758;42.640;23.302;2023-08-06T13:21:21;1.67;;;1.58;;
37931;SDS011;23758;42.640;23.302;2023-08-06T13:23:47;1.23;;;1.20;;
37931;SDS011;23758;42.640;23.302;2023-08-06T13:26:12;1.40;;;1.30;;
37931;SDS011;23758;42.640;23.302;2023-08-06T13:28:38;1.75;;;1.65;;
37931;SDS011;23758;42.640;23.302;2023-08-06T13:31:04;1.77;;;1.67;;
37931;SDS011;23758;42.640;23.302;2023-08-06T13:33:29;1.63;;;1.52;;
37931;SDS011;23758;42.640;23.302;2023-08-06T13:35:55;1.60;;;1.50;;
37931;SDS011;23758;42.640;23.302;2023-08-06T13:38:20;1.60;;;1.50;;
37931;SDS011;23758;42.640;23.302;2023-08-06T13:40:46;1.70;;;1.60;;
37931;SDS011;23758;42.640;23.302;2023-08-06T13:43:11;1.70;;;1.60;;
37931;SDS011;23758;42.640;23.302;2023-08-06T13:45:37;1.60;;;1.50;;
37931;SDS011;23758;42.640;23.302;2023-08-06T13:48:03;1.70;;;1.60;;
37931;SDS011;23758;42.640;23.302;2023-08-06T13:50:29;1.45;;;1.35;;
37931;SDS011;23758;42.640;23.302;2023-08-06T13:52:54;1.67;;;1.58;;
37931;SDS011;23758;42.640;23.302;2023-08-06T13:55:21;1.58;;;1.48;;
37931;SDS011;23758;42.640;23.302;2023-08-06T13:57:46;1.77;;;1.67;;
37931;SDS011;23758;42.640;23.302;2023-08-06T14:00:12;1.50;;;1.40;;
37931;SDS011;23758;42.640;23.302;2023-08-06T14:02:38;1.70;;;1.60;;
37931;SDS011;23758;42.640;23.302;2023-08-06T14:05:03;1.50;;;1.40;;
37931;SDS011;23758;42.640;23.302;2023-08-06T14:07:29;1.65;;;1.55;;
37931;SDS011;23758;42.640;23.302;2023-08-06T14:09:55;1.60;;;1.50;;
37931;SDS011;23758;42.640;23.302;2023-08-06T14:12:22;1.52;;;1.42;;
37931;SDS011;23758;42.640;23.302;2023-08-06T14:14:47;1.60;;;1.50;;
37931;SDS011;23758;42.640;23.302;2023-08-06T14:17:13;1.58;;;1.42;;
37931;SDS011;23758;42.640;23.302;2023-08-06T14:19:38;1.90;;;1.70;;
37931;SDS011;23758;42.640;23.302;2023-08-06T14:22:04;1.60;;;1.50;;
37931;SDS011;23758;42.640;23.302;2023-08-06T14:24:29;1.88;;;1.77;;
37931;SDS011;23758;42.640;23.302;2023-08-06T14:26:55;1.50;;;1.40;;
37931;SDS011;23758;42.640;23.302;2023-08-06T14:29:20;1.63;;;1.50;;
37931;SDS011;23758;42.640;23.302;2023-08-06T14:31:46;1.73;;;1.63;;
37931;SDS011;23758;42.640;23.302;2023-08-06T14:34:11;1.50;;;1.40;;
37931;SDS011;23758;42.640;23.302;2023-08-06T14:36:37;1.70;;;1.60;;
37931;SDS011;23758;42.640;23.302;2023-08-06T14:39:02;1.55;;;1.45;;
37931;SDS011;23758;42.640;23.302;2023-08-06T14:41:28;1.73;;;1.63;;